createdAt,value
2023-01-04T00:00:41.305Z,2.30
2023-01-04T00:03:07.959Z,2.40
2023-01-04T00:05:35.519Z,2.40
2023-01-04T00:08:02.105Z,2.50
2023-01-04T00:10:28.729Z,2.40
2023-01-04T00:12:55.307Z,2.70
2023-01-04T00:15:21.886Z,2.60
2023-01-04T00:17:48.465Z,2.70
2023-01-04T00:20:15.030Z,2.60
2023-01-04T00:22:41.627Z,2.70
2023-01-04T00:25:08.753Z,2.60
2023-01-04T00:27:35.324Z,2.60
2023-01-04T00:30:01.865Z,2.50
2023-01-04T00:32:28.515Z,2.40
2023-01-04T00:34:55.060Z,2.40
2023-01-04T00:37:21.644Z,2.40
2023-01-04T00:39:48.222Z,2.30
2023-01-04T00:42:14.753Z,2.20
2023-01-04T00:44:41.367Z,2.20
2023-01-04T00:47:08.040Z,2.20
2023-01-04T00:49:34.632Z,2.20
2023-01-04T00:52:01.256Z,2.30
2023-01-04T00:54:28.239Z,2.30
2023-01-04T00:56:54.919Z,2.40
2023-01-04T00:59:22.760Z,2.40
2023-01-04T01:01:50.428Z,2.30
2023-01-04T01:04:19.352Z,2.40
2023-01-04T01:06:46.299Z,2.40
2023-01-04T01:09:13.588Z,2.40
2023-01-04T01:11:41.107Z,2.50
2023-01-04T01:14:13.498Z,2.70
2023-01-04T01:19:28.468Z,2.70
2023-01-04T01:21:56.918Z,2.60
2023-01-04T01:24:23.612Z,2.80
2023-01-04T01:26:50.240Z,2.70
2023-01-04T01:29:16.905Z,3.00
2023-01-04T01:31:43.620Z,2.90
2023-01-04T01:34:10.301Z,2.70
2023-01-04T01:36:37.582Z,2.70
2023-01-04T01:39:05.434Z,2.50
2023-01-04T01:41:33.899Z,2.50
2023-01-04T01:44:52.904Z,2.40
2023-01-04T01:47:24.981Z,2.40
2023-01-04T01:49:54.367Z,2.40
2023-01-04T01:52:39.842Z,2.40
2023-01-04T01:55:10.835Z,2.30
2023-01-04T01:57:38.769Z,2.30
2023-01-04T02:00:10.040Z,2.20
2023-01-04T02:02:36.852Z,2.10
2023-01-04T02:05:03.700Z,2.00
2023-01-04T02:07:30.709Z,2.10
2023-01-04T02:09:58.690Z,2.10
2023-01-04T02:12:25.749Z,2.00
2023-01-04T02:14:52.516Z,2.00
2023-01-04T02:17:34.040Z,2.00
2023-01-04T02:20:21.291Z,2.00
2023-01-04T02:23:19.159Z,1.90
2023-01-04T02:26:14.553Z,2.00
2023-01-04T02:28:52.731Z,1.90
2023-01-04T02:31:29.973Z,2.00
2023-01-04T02:34:16.367Z,2.10
2023-01-04T02:37:08.366Z,2.00
2023-01-04T02:39:42.895Z,1.90
2023-01-04T02:42:14.141Z,1.90
2023-01-04T02:44:53.379Z,1.80
2023-01-04T02:47:51.373Z,1.80
2023-01-04T02:50:31.136Z,1.70
2023-01-04T02:53:04.597Z,1.80
2023-01-04T02:55:44.268Z,2.20
2023-01-04T02:58:32.626Z,2.10
2023-01-04T03:01:31.990Z,2.00
2023-01-04T03:04:43.818Z,1.90
2023-01-04T03:07:31.483Z,2.00
2023-01-04T03:10:10.677Z,1.90
2023-01-04T03:12:44.703Z,1.90
2023-01-04T03:15:25.372Z,1.80
2023-01-04T03:18:05.476Z,1.80
2023-01-04T03:20:32.282Z,1.80
2023-01-04T03:23:24.239Z,2.00
2023-01-04T03:26:18.883Z,2.30
2023-01-04T03:29:04.906Z,2.40
2023-01-04T03:31:58.598Z,2.40
2023-01-04T03:34:44.357Z,2.40
2023-01-04T03:37:34.957Z,2.40
2023-01-04T03:40:50.137Z,2.40
2023-01-04T03:43:41.731Z,2.40
2023-01-04T03:46:38.420Z,2.50
2023-01-04T03:49:13.800Z,2.60
2023-01-04T03:51:42.297Z,2.60
2023-01-04T03:54:15.575Z,2.70
2023-01-04T03:56:44.014Z,2.80
2023-01-04T03:59:12.371Z,2.80
2023-01-04T04:01:41.841Z,2.80
2023-01-04T04:04:27.419Z,2.90
2023-01-04T04:07:13.076Z,3.00
2023-01-04T04:09:39.638Z,3.00
2023-01-04T04:12:06.346Z,3.00
2023-01-04T04:14:32.932Z,3.10
2023-01-04T04:16:59.655Z,3.10
2023-01-04T04:19:26.339Z,3.20
2023-01-04T04:21:52.907Z,3.30
2023-01-04T04:24:22.051Z,3.30
2023-01-04T04:26:48.879Z,3.40
2023-01-04T04:29:15.602Z,3.40
2023-01-04T04:31:42.309Z,3.50
2023-01-04T04:34:10.274Z,3.60
2023-01-04T04:36:37.121Z,3.60
2023-01-04T04:39:04.043Z,3.80
2023-01-04T04:41:39.655Z,4.10
2023-01-04T04:44:08.696Z,4.30
2023-01-04T04:49:03.242Z,4.60
2023-01-04T04:51:29.865Z,4.80
2023-01-04T04:53:57.147Z,4.80
2023-01-04T04:56:23.817Z,5.00
2023-01-04T04:58:50.700Z,5.10
2023-01-04T05:01:17.914Z,5.20
2023-01-04T05:03:44.658Z,5.20
2023-01-04T05:06:11.314Z,5.20
2023-01-04T05:08:37.874Z,5.20
2023-01-04T05:11:06.713Z,5.30
2023-01-04T05:16:01.634Z,5.40
2023-01-04T05:18:28.379Z,5.50
2023-01-04T05:20:55.019Z,5.60
2023-01-04T05:23:22.151Z,5.70
2023-01-04T05:25:54.265Z,5.70
2023-01-04T05:28:20.913Z,5.70
2023-01-04T05:30:53.840Z,5.70
2023-01-04T05:33:24.868Z,5.80
2023-01-04T05:35:52.865Z,5.90
2023-01-04T05:38:19.978Z,6.10
2023-01-04T05:40:47.065Z,6.10
2023-01-04T05:43:14.064Z,6.10
2023-01-04T05:45:43.468Z,6.10
2023-01-04T05:48:10.381Z,6.10
2023-01-04T05:50:37.041Z,6.10
2023-01-04T05:53:04.072Z,6.10
2023-01-04T05:55:30.703Z,6.00
2023-01-04T05:57:57.273Z,6.20
2023-01-04T06:00:24.378Z,6.20
2023-01-04T06:02:52.606Z,6.10
2023-01-04T06:05:19.343Z,6.20
2023-01-04T06:07:45.902Z,6.20
2023-01-04T06:10:14.438Z,6.20
2023-01-04T06:12:41.596Z,6.40
2023-01-04T06:15:10.006Z,6.30
2023-01-04T06:17:37.320Z,6.40
2023-01-04T06:20:06.033Z,6.40
2023-01-04T06:22:33.374Z,6.50
2023-01-04T06:24:59.980Z,6.50
2023-01-04T06:27:26.743Z,6.50
2023-01-04T06:29:53.485Z,6.50
2023-01-04T06:32:20.089Z,6.50
2023-01-04T06:34:46.692Z,6.50
2023-01-04T06:37:13.295Z,6.50
2023-01-04T06:39:39.850Z,6.50
2023-01-04T06:42:26.485Z,6.50
2023-01-04T06:44:53.324Z,6.60
2023-01-04T06:47:19.927Z,6.60
2023-01-04T06:49:46.529Z,6.60
2023-01-04T06:52:13.120Z,6.50
2023-01-04T06:54:39.673Z,6.50
2023-01-04T06:57:06.259Z,6.50
2023-01-04T06:59:32.824Z,6.50
2023-01-04T07:01:59.496Z,6.50
2023-01-04T07:04:26.229Z,6.50
2023-01-04T07:06:52.848Z,6.50
2023-01-04T07:09:19.413Z,6.50
2023-01-04T07:11:46.014Z,6.60
2023-01-04T07:14:12.568Z,6.60
2023-01-04T07:16:39.191Z,6.50
2023-01-04T07:19:08.327Z,6.40
2023-01-04T07:21:34.912Z,6.40
2023-01-04T07:24:01.510Z,6.50
2023-01-04T07:26:28.086Z,6.50
2023-01-04T07:29:13.279Z,6.60
2023-01-04T07:31:40.219Z,6.70
2023-01-04T07:34:07.291Z,6.60
2023-01-04T07:36:33.856Z,6.60
2023-01-04T07:39:01.118Z,6.50
2023-01-04T07:41:28.047Z,6.50
2023-01-04T07:43:54.690Z,6.40
2023-01-04T07:46:22.078Z,6.40
2023-01-04T07:48:48.884Z,6.30
2023-01-04T07:51:15.873Z,6.30
2023-01-04T07:53:42.455Z,6.30
2023-01-04T07:56:13.653Z,6.30
2023-01-04T07:58:43.582Z,6.30
2023-01-04T08:01:18.456Z,6.30
2023-01-04T08:03:46.071Z,6.30
2023-01-04T08:06:14.165Z,6.30
2023-01-04T08:08:41.550Z,6.20
2023-01-04T08:11:10.883Z,6.20
2023-01-04T08:13:37.501Z,6.20
2023-01-04T08:16:04.844Z,6.30
2023-01-04T08:18:31.588Z,6.30
2023-01-04T08:21:05.423Z,6.40
2023-01-04T08:23:32.860Z,6.40
2023-01-04T08:26:07.485Z,6.40
2023-01-04T08:28:34.306Z,6.40
2023-01-04T08:31:06.444Z,6.50
2023-01-04T08:33:34.152Z,6.60
2023-01-04T08:36:27.468Z,6.60
2023-01-04T08:39:01.676Z,6.60
2023-01-04T08:41:56.633Z,6.60
2023-01-04T08:44:21.942Z,6.70
2023-01-04T08:46:49.378Z,6.80
2023-01-04T08:49:16.151Z,6.80
2023-01-04T08:51:43.099Z,6.90
2023-01-04T08:54:10.285Z,6.90
2023-01-04T08:56:37.740Z,7.00
2023-01-04T08:59:05.711Z,7.00
2023-01-04T09:01:33.713Z,7.00
2023-01-04T09:04:00.833Z,7.00
2023-01-04T09:06:28.119Z,7.00
2023-01-04T09:08:57.114Z,7.10
2023-01-04T09:11:24.964Z,7.10
2023-01-04T09:21:28.389Z,7.50
2023-01-04T09:23:57.983Z,7.50
2023-01-04T09:31:27.427Z,7.70
2023-01-04T09:36:43.498Z,7.70
2023-01-04T09:39:16.832Z,7.70
2023-01-04T09:41:53.174Z,7.70
2023-01-04T09:49:56.815Z,7.80
2023-01-04T09:52:34.491Z,7.70
2023-01-04T09:55:37.174Z,7.70
2023-01-04T09:57:56.247Z,7.70
2023-01-04T10:00:43.373Z,7.70
2023-01-04T10:03:32.378Z,7.70
2023-01-04T10:06:00.225Z,7.70
2023-01-04T10:08:26.855Z,7.60
2023-01-04T10:11:30.644Z,7.70
2023-01-04T10:14:44.809Z,7.70
2023-01-04T10:17:20.472Z,7.80
2023-01-04T10:23:28.840Z,7.90
2023-01-04T10:26:14.956Z,8.00
2023-01-04T10:29:00.139Z,8.10
2023-01-04T10:31:42.039Z,8.10
2023-01-04T10:34:40.364Z,8.20
2023-01-04T10:37:23.123Z,8.30
2023-01-04T10:39:55.921Z,8.30
2023-01-04T10:42:34.345Z,8.50
2023-01-04T10:45:22.436Z,8.60
2023-01-04T10:48:08.342Z,8.60
2023-01-04T10:50:52.287Z,8.70
2023-01-04T10:53:28.805Z,8.90
2023-01-04T10:56:25.327Z,8.90
2023-01-04T10:59:07.749Z,9.00
2023-01-04T11:01:44.963Z,9.00
2023-01-04T11:04:19.235Z,9.10
2023-01-04T11:07:00.049Z,9.20
2023-01-04T11:09:39.583Z,9.20
2023-01-04T11:12:11.090Z,9.20
2023-01-04T11:14:38.050Z,9.30
2023-01-04T11:17:08.411Z,9.30
2023-01-04T11:19:35.066Z,9.30
2023-01-04T11:22:13.060Z,9.30
2023-01-04T11:25:00.463Z,9.40
2023-01-04T11:27:35.479Z,9.50
2023-01-04T11:30:13.439Z,9.50
2023-01-04T11:33:05.600Z,9.50
2023-01-04T11:35:42.286Z,9.50
2023-01-04T11:38:24.164Z,9.60
2023-01-04T11:41:15.725Z,9.60
2023-01-04T11:44:01.051Z,9.50
2023-01-04T11:46:29.125Z,9.50
2023-01-04T11:48:56.505Z,9.50
2023-01-04T11:51:29.660Z,9.40
2023-01-04T11:54:05.561Z,9.40
2023-01-04T12:01:47.387Z,9.40
2023-01-04T12:04:35.644Z,9.40
2023-01-04T12:07:21.683Z,9.40
2023-01-04T12:09:48.237Z,9.30
2023-01-04T12:12:16.103Z,9.20
2023-01-04T12:14:48.395Z,9.20
2023-01-04T12:17:30.930Z,9.20
2023-01-04T12:20:01.476Z,9.20
2023-01-04T12:22:36.665Z,9.20
2023-01-04T12:25:06.122Z,9.30
2023-01-04T12:27:32.761Z,9.30
2023-01-04T12:30:05.811Z,9.10
2023-01-04T12:32:32.635Z,9.30
2023-01-04T12:34:59.328Z,9.40
2023-01-04T12:37:38.319Z,9.20
2023-01-04T12:40:43.365Z,9.30
2023-01-04T12:43:16.134Z,9.40
2023-01-04T12:48:49.227Z,9.50
2023-01-04T12:51:34.341Z,9.40
2023-01-04T12:54:06.003Z,9.40
2023-01-04T12:57:10.496Z,9.40
2023-01-04T12:59:39.398Z,9.60
2023-01-04T13:02:18.571Z,9.60
2023-01-04T13:07:32.436Z,9.60
2023-01-04T13:10:19.046Z,9.80
2023-01-04T13:13:13.223Z,9.80
2023-01-04T13:16:01.408Z,9.80
2023-01-04T13:18:38.486Z,9.80
2023-01-04T13:21:31.371Z,10.00
2023-01-04T13:24:01.248Z,10.00
2023-01-04T13:26:38.431Z,9.90
2023-01-04T13:29:16.676Z,10.00
2023-01-04T13:32:04.367Z,10.00
2023-01-04T13:37:10.055Z,10.20
2023-01-04T13:39:42.460Z,10.20
2023-01-04T13:42:29.501Z,10.20
2023-01-04T13:47:51.432Z,10.20
2023-01-04T13:50:34.929Z,10.20
2023-01-04T13:53:07.670Z,10.30
2023-01-04T13:55:37.576Z,10.20
2023-01-04T13:58:06.968Z,10.20
2023-01-04T14:00:52.898Z,10.30
2023-01-04T14:03:32.196Z,10.20
2023-01-04T14:06:10.998Z,10.30
2023-01-04T14:08:42.082Z,10.20
2023-01-04T14:11:40.718Z,10.30
2023-01-04T14:14:21.488Z,10.30
2023-01-04T14:16:49.279Z,10.30
2023-01-04T14:19:40.954Z,10.20
2023-01-04T14:22:24.771Z,10.20
2023-01-04T14:25:10.123Z,10.10
2023-01-04T14:27:42.706Z,10.10
2023-01-04T14:30:18.501Z,10.10
2023-01-04T14:32:57.819Z,10.10
2023-01-04T14:35:25.513Z,10.10
2023-01-04T14:37:52.496Z,10.10
2023-01-04T14:40:36.418Z,10.10
2023-01-04T14:43:03.189Z,10.10
2023-01-04T14:45:29.726Z,10.10
2023-01-04T14:47:56.294Z,10.10
2023-01-04T14:50:22.961Z,10.10
2023-01-04T14:52:53.882Z,10.10
2023-01-04T14:55:20.656Z,10.10
2023-01-04T14:57:47.481Z,9.90
2023-01-04T15:00:19.888Z,10.00
2023-01-04T15:02:50.839Z,10.00
2023-01-04T15:05:20.246Z,10.00
2023-01-04T15:07:47.131Z,10.00
2023-01-04T15:10:26.803Z,9.90
2023-01-04T15:12:54.427Z,9.90
2023-01-04T15:15:21.763Z,9.90
2023-01-04T15:17:48.968Z,9.90
2023-01-04T15:20:15.601Z,9.90
2023-01-04T15:22:43.863Z,9.90
2023-01-04T15:25:11.384Z,10.00
2023-01-04T15:27:42.153Z,9.90
2023-01-04T15:30:13.727Z,9.90
2023-01-04T15:32:40.711Z,9.80
2023-01-04T15:35:07.979Z,9.80
2023-01-04T15:37:34.567Z,9.80
2023-01-04T15:40:03.297Z,9.90
2023-01-04T15:42:49.282Z,9.90
2023-01-04T15:45:15.994Z,9.90
2023-01-04T15:47:42.566Z,9.80
2023-01-04T15:50:09.346Z,9.90
2023-01-04T15:52:35.983Z,9.90
2023-01-04T15:55:02.701Z,10.00
2023-01-04T15:57:29.248Z,10.00
2023-01-04T15:59:55.845Z,10.00
2023-01-04T16:02:22.623Z,9.90
2023-01-04T16:04:50.482Z,10.00
2023-01-04T16:07:17.927Z,10.00
2023-01-04T16:09:44.578Z,10.00
2023-01-04T16:12:30.035Z,10.00
2023-01-04T16:14:56.637Z,10.00
2023-01-04T16:17:23.505Z,10.00
2023-01-04T16:19:50.089Z,10.00
2023-01-04T16:22:16.720Z,10.10
2023-01-04T16:27:35.438Z,10.00
2023-01-04T16:30:03.802Z,10.00
2023-01-04T16:32:30.390Z,10.00
2023-01-04T16:34:57.060Z,10.00
2023-01-04T16:37:27.977Z,10.00
2023-01-04T16:40:10.266Z,10.00
2023-01-04T16:42:37.981Z,9.90
2023-01-04T16:45:05.962Z,9.90
2023-01-04T16:47:40.998Z,10.00
2023-01-04T16:50:09.974Z,10.00
2023-01-04T16:52:37.093Z,10.00
2023-01-04T16:55:04.615Z,10.00
2023-01-04T16:57:31.366Z,10.00
2023-01-04T16:59:58.040Z,10.00
2023-01-04T17:02:24.895Z,10.00
2023-01-04T17:04:56.857Z,10.00
2023-01-04T17:07:23.555Z,10.00
2023-01-04T17:09:50.229Z,10.00
2023-01-04T17:17:50.318Z,9.90
2023-01-04T17:20:16.955Z,10.00
2023-01-04T17:22:43.505Z,9.90
2023-01-04T17:25:10.621Z,9.90
2023-01-04T17:27:37.260Z,9.90
2023-01-04T17:30:04.680Z,9.80
2023-01-04T17:32:31.226Z,9.80
2023-01-04T17:34:58.635Z,9.80
2023-01-04T17:37:28.716Z,9.80
2023-01-04T17:39:55.350Z,9.70
2023-01-04T17:42:22.942Z,9.70
2023-01-04T17:44:49.566Z,9.70
2023-01-04T17:47:16.221Z,9.70
2023-01-04T17:49:42.780Z,9.80
2023-01-04T17:52:10.993Z,9.80
2023-01-04T17:54:40.318Z,9.90
2023-01-04T17:57:06.895Z,9.90
2023-01-04T17:59:33.443Z,9.90
2023-01-04T18:02:00.121Z,10.00
2023-01-04T18:04:26.783Z,10.00
2023-01-04T18:06:53.321Z,9.90
2023-01-04T18:09:24.174Z,9.90
2023-01-04T18:11:51.205Z,10.00
2023-01-04T18:14:18.016Z,10.00
2023-01-04T18:16:57.751Z,10.00
2023-01-04T18:19:26.966Z,10.00
2023-01-04T18:21:55.613Z,9.90
2023-01-04T18:24:39.051Z,9.90
2023-01-04T18:27:25.417Z,9.90
2023-01-04T18:29:54.471Z,9.90
2023-01-04T18:32:21.988Z,9.90
2023-01-04T18:34:48.588Z,9.90
2023-01-04T18:37:16.124Z,9.90
2023-01-04T18:39:43.108Z,9.90
2023-01-04T18:42:09.678Z,9.80
2023-01-04T18:44:37.838Z,9.80
2023-01-04T18:47:07.710Z,9.80
2023-01-04T18:49:34.324Z,9.80
2023-01-04T18:52:01.025Z,9.80
2023-01-04T18:54:27.599Z,9.80
2023-01-04T18:57:00.414Z,9.90
2023-01-04T18:59:28.369Z,9.90
2023-01-04T19:02:02.011Z,9.80
2023-01-04T19:04:35.381Z,9.90
2023-01-04T19:07:02.379Z,9.80
2023-01-04T19:09:29.088Z,9.80
2023-01-04T19:11:55.655Z,9.80
2023-01-04T19:14:22.193Z,9.80
2023-01-04T19:16:48.864Z,9.80
2023-01-04T19:19:15.473Z,9.80
2023-01-04T19:21:42.103Z,9.90
2023-01-04T19:24:08.841Z,9.90
2023-01-04T19:26:35.554Z,9.90
2023-01-04T19:29:03.420Z,9.90
2023-01-04T19:31:30.162Z,9.90
2023-01-04T19:33:56.719Z,9.90
2023-01-04T19:36:23.451Z,9.90
2023-01-04T19:38:50.064Z,9.90
2023-01-04T19:41:25.270Z,9.90
2023-01-04T19:43:57.772Z,9.80
2023-01-04T19:46:24.959Z,9.80
2023-01-04T19:48:51.538Z,9.70
2023-01-04T19:51:18.235Z,9.70
2023-01-04T19:53:45.452Z,9.70
2023-01-04T19:56:13.745Z,9.70
2023-01-04T19:58:40.812Z,9.70
2023-01-04T20:01:11.574Z,9.70
2023-01-04T20:03:38.178Z,9.70
2023-01-04T20:06:05.817Z,9.70
2023-01-04T20:08:33.432Z,9.70
2023-01-04T20:11:01.408Z,9.70
2023-01-04T20:13:29.733Z,9.70
2023-01-04T20:15:56.359Z,9.70
2023-01-04T20:18:24.083Z,9.60
2023-01-04T20:20:52.126Z,9.60
2023-01-04T20:23:21.460Z,9.60
2023-01-04T20:25:50.498Z,9.50
2023-01-04T20:28:19.657Z,9.50
2023-01-04T20:30:46.554Z,9.50
2023-01-04T20:33:13.191Z,9.50
2023-01-04T20:35:41.879Z,9.50
2023-01-04T20:38:09.896Z,9.50
2023-01-04T20:40:37.682Z,9.50
2023-01-04T20:43:22.856Z,9.50
2023-01-04T20:45:49.470Z,9.60
2023-01-04T20:48:16.640Z,9.60
2023-01-04T20:50:43.504Z,9.60
2023-01-04T20:53:11.326Z,9.60
2023-01-04T20:55:41.922Z,9.60
2023-01-04T20:58:08.929Z,9.60
2023-01-04T21:00:37.025Z,9.60
2023-01-04T21:03:05.945Z,9.60
2023-01-04T21:05:45.617Z,9.60
2023-01-04T21:08:13.551Z,9.60
2023-01-04T21:10:42.205Z,9.60
2023-01-04T21:13:09.704Z,9.60
2023-01-04T21:15:37.341Z,9.60
2023-01-04T21:18:07.095Z,9.70
2023-01-04T21:20:33.815Z,9.70
2023-01-04T21:23:00.456Z,9.80
2023-01-04T21:25:27.334Z,9.80
2023-01-04T21:27:53.959Z,9.80
2023-01-04T21:30:20.838Z,9.80
2023-01-04T21:32:47.489Z,9.80
2023-01-04T21:35:15.240Z,9.70
2023-01-04T21:37:41.929Z,9.70
2023-01-04T21:40:09.503Z,9.70
2023-01-04T21:42:36.175Z,9.70
2023-01-04T21:45:03.494Z,9.70
2023-01-04T21:47:31.171Z,9.70
2023-01-04T21:49:57.739Z,9.70
2023-01-04T21:52:24.420Z,9.70
2023-01-04T21:54:51.036Z,9.70
2023-01-04T21:57:17.778Z,9.70
2023-01-04T21:59:44.357Z,9.60
2023-01-04T22:02:16.193Z,9.70
2023-01-04T22:04:43.449Z,9.70
2023-01-04T22:07:10.079Z,9.60
2023-01-04T22:09:36.872Z,9.60
2023-01-04T22:12:05.136Z,9.60
2023-01-04T22:14:32.753Z,9.70
2023-01-04T22:16:59.504Z,9.80
2023-01-04T22:19:26.151Z,9.90
2023-01-04T22:21:52.707Z,9.90
2023-01-04T22:24:19.271Z,9.90
2023-01-04T22:26:47.157Z,10.00
2023-01-04T22:29:13.816Z,10.00
2023-01-04T22:31:40.589Z,10.00
2023-01-04T22:34:07.188Z,10.10
2023-01-04T22:36:34.042Z,10.20
2023-01-04T22:39:00.599Z,10.50
2023-01-04T22:44:00.697Z,10.20
2023-01-04T23:06:18.360Z,10.30
2023-01-04T23:13:42.358Z,10.10
2023-01-04T23:16:11.762Z,10.10
2023-01-04T23:18:39.153Z,10.00
2023-01-04T23:49:33.385Z,10.10
